createdAt,value
2023-05-07T00:00:22.518Z,11.23
2023-05-07T00:02:49.332Z,11.21
2023-05-07T00:05:17.537Z,11.18
2023-05-07T00:07:44.127Z,11.17
2023-05-07T00:10:11.693Z,11.15
2023-05-07T00:12:38.511Z,11.17
2023-05-07T00:15:06.540Z,11.18
2023-05-07T00:17:34.242Z,11.15
2023-05-07T00:20:00.977Z,11.15
2023-05-07T00:22:27.454Z,11.14
2023-05-07T00:24:53.995Z,11.13
2023-05-07T00:27:20.691Z,11.10
2023-05-07T00:29:47.200Z,11.07
2023-05-07T00:32:13.785Z,11.07
2023-05-07T00:34:40.632Z,11.05
2023-05-07T00:37:08.418Z,11.04
2023-05-07T00:39:34.953Z,11.04
2023-05-07T00:42:01.665Z,11.03
2023-05-07T00:44:29.365Z,11.03
2023-05-07T00:46:56.927Z,11.00
2023-05-07T00:49:25.089Z,10.99
2023-05-07T00:51:52.027Z,11.01
2023-05-07T00:54:18.686Z,11.01
2023-05-07T00:56:45.899Z,11.01
2023-05-07T00:59:12.619Z,11.00
2023-05-07T01:01:39.300Z,11.00
2023-05-07T01:04:06.203Z,10.98
2023-05-07T01:06:33.492Z,10.96
2023-05-07T01:09:01.625Z,10.93
2023-05-07T01:11:28.873Z,10.91
2023-05-07T01:13:55.644Z,10.90
2023-05-07T01:16:22.908Z,10.87
2023-05-07T01:18:50.041Z,10.86
2023-05-07T01:21:18.569Z,10.87
2023-05-07T01:23:46.213Z,10.90
2023-05-07T01:26:12.727Z,10.93
2023-05-07T01:28:39.341Z,10.94
2023-05-07T01:31:07.228Z,10.94
2023-05-07T01:33:37.374Z,10.95
2023-05-07T01:36:07.362Z,10.93
2023-05-07T01:38:37.249Z,10.93
2023-05-07T01:41:04.528Z,10.92
2023-05-07T01:43:31.652Z,10.93
2023-05-07T01:46:00.190Z,10.94
2023-05-07T01:48:27.372Z,10.93
2023-05-07T01:50:54.566Z,10.91
2023-05-07T01:53:21.418Z,10.86
2023-05-07T01:55:48.158Z,10.82
2023-05-07T01:58:15.668Z,10.80
2023-05-07T02:00:42.252Z,10.77
2023-05-07T02:03:09.373Z,10.73
2023-05-07T02:05:45.733Z,10.72
2023-05-07T02:08:38.702Z,10.70
2023-05-07T02:11:06.014Z,10.70
2023-05-07T02:13:35.545Z,10.71
2023-05-07T02:16:03.505Z,10.71
2023-05-07T02:18:30.797Z,10.72
2023-05-07T02:20:57.381Z,10.73
2023-05-07T02:23:23.956Z,10.75
2023-05-07T02:25:50.396Z,10.75
2023-05-07T02:28:19.321Z,10.74
2023-05-07T02:30:51.578Z,10.73
2023-05-07T02:33:18.685Z,10.73
2023-05-07T02:35:45.164Z,10.74
2023-05-07T02:38:13.755Z,10.74
2023-05-07T02:40:41.365Z,10.72
2023-05-07T02:43:07.860Z,10.69
2023-05-07T02:45:34.795Z,10.68
2023-05-07T02:48:02.767Z,10.65
2023-05-07T02:50:29.336Z,10.62
2023-05-07T02:52:56.275Z,10.60
2023-05-07T02:55:22.798Z,10.59
2023-05-07T02:57:49.443Z,10.57
2023-05-07T03:00:20.703Z,10.56
2023-05-07T03:02:58.558Z,10.57
2023-05-07T03:05:25.096Z,10.56
2023-05-07T03:07:51.572Z,10.55
2023-05-07T03:10:18.149Z,10.50
2023-05-07T03:12:44.862Z,10.47
2023-05-07T03:15:15.680Z,10.44
2023-05-07T03:17:42.231Z,10.42
2023-05-07T03:20:11.089Z,10.42
2023-05-07T03:22:38.155Z,10.41
2023-05-07T03:25:05.436Z,10.40
2023-05-07T03:27:31.972Z,10.39
2023-05-07T03:29:58.551Z,10.38
2023-05-07T03:32:25.749Z,10.38
2023-05-07T03:34:52.444Z,10.39
2023-05-07T03:37:19.617Z,10.39
2023-05-07T03:39:46.082Z,10.39
2023-05-07T03:42:12.858Z,10.40
2023-05-07T03:44:39.876Z,10.42
2023-05-07T03:47:06.679Z,10.42
2023-05-07T03:49:33.212Z,10.40
2023-05-07T03:52:00.364Z,10.38
2023-05-07T03:54:26.990Z,10.38
2023-05-07T03:56:53.493Z,10.37
2023-05-07T03:59:20.196Z,10.40
2023-05-07T04:01:49.692Z,10.43
2023-05-07T04:04:18.602Z,10.44
2023-05-07T04:06:45.365Z,10.47
2023-05-07T04:09:12.036Z,10.45
2023-05-07T04:11:41.252Z,10.43
2023-05-07T04:14:09.910Z,10.43
2023-05-07T04:16:37.116Z,10.45
2023-05-07T04:19:04.351Z,10.46
2023-05-07T04:21:32.091Z,10.45
2023-05-07T04:23:59.291Z,10.46
2023-05-07T04:26:26.069Z,10.47
2023-05-07T04:28:52.631Z,10.44
2023-05-07T04:31:19.190Z,10.44
2023-05-07T04:33:49.828Z,10.44
2023-05-07T04:36:16.374Z,10.44
2023-05-07T04:38:49.348Z,10.43
2023-05-07T04:41:17.664Z,10.44
2023-05-07T04:43:44.458Z,10.46
2023-05-07T04:46:12.602Z,10.51
2023-05-07T04:48:40.338Z,10.54
2023-05-07T04:51:07.551Z,10.55
2023-05-07T04:53:34.181Z,10.54
2023-05-07T04:56:00.685Z,10.56
2023-05-07T04:58:33.139Z,10.58
2023-05-07T05:01:00.404Z,10.62
2023-05-07T05:03:27.135Z,10.64
2023-05-07T05:05:53.985Z,10.69
2023-05-07T05:08:22.432Z,10.75
2023-05-07T05:10:50.781Z,10.81
2023-05-07T05:13:17.676Z,10.85
2023-05-07T05:15:44.974Z,10.92
2023-05-07T05:18:11.649Z,10.94
2023-05-07T05:20:39.664Z,10.95
2023-05-07T05:23:07.322Z,10.97
2023-05-07T05:25:34.145Z,11.01
2023-05-07T05:28:02.305Z,11.04
2023-05-07T05:30:29.540Z,11.06
2023-05-07T05:32:56.103Z,11.08
2023-05-07T05:35:22.660Z,11.11
2023-05-07T05:37:49.489Z,11.13
2023-05-07T05:40:17.572Z,11.17
2023-05-07T05:42:44.119Z,11.18
2023-05-07T05:45:11.240Z,11.20
2023-05-07T05:47:40.110Z,11.22
2023-05-07T05:50:08.102Z,11.23
2023-05-07T05:52:34.661Z,11.23
2023-05-07T05:55:01.824Z,11.22
2023-05-07T05:57:28.854Z,11.25
2023-05-07T05:59:56.049Z,11.28
2023-05-07T06:02:24.292Z,11.30
2023-05-07T06:04:51.260Z,11.28
2023-05-07T06:07:20.300Z,11.27
2023-05-07T06:09:46.772Z,11.30
2023-05-07T06:12:13.563Z,11.33
2023-05-07T06:14:41.656Z,11.38
2023-05-07T06:17:08.194Z,11.44
2023-05-07T06:19:34.678Z,11.48
2023-05-07T06:22:02.743Z,11.49
2023-05-07T06:24:30.967Z,11.50
2023-05-07T06:26:59.331Z,11.48
2023-05-07T06:29:26.987Z,11.49
2023-05-07T06:31:54.626Z,11.50
2023-05-07T06:34:22.323Z,11.52
2023-05-07T06:36:48.849Z,11.53
2023-05-07T06:39:25.557Z,11.59
2023-05-07T06:41:52.730Z,11.66
2023-05-07T06:44:25.725Z,11.70
2023-05-07T06:47:06.360Z,11.71
2023-05-07T06:49:33.522Z,11.76
2023-05-07T06:52:00.137Z,11.78
2023-05-07T06:54:27.165Z,11.86
2023-05-07T06:56:53.685Z,11.93
2023-05-07T06:59:20.466Z,12.00
2023-05-07T07:01:47.594Z,12.07
2023-05-07T07:04:14.702Z,12.19
2023-05-07T07:06:43.126Z,12.23
2023-05-07T07:09:12.807Z,12.18
2023-05-07T07:11:40.421Z,12.18
2023-05-07T07:14:07.672Z,12.22
2023-05-07T07:16:40.055Z,12.22
2023-05-07T07:19:06.611Z,12.26
2023-05-07T07:21:33.355Z,12.25
2023-05-07T07:23:59.927Z,12.24
2023-05-07T07:26:26.556Z,12.27
2023-05-07T07:28:53.148Z,12.27
2023-05-07T07:31:22.107Z,12.28
2023-05-07T07:33:52.938Z,12.30
2023-05-07T07:36:20.997Z,12.29
2023-05-07T07:38:48.779Z,12.28
2023-05-07T07:41:17.201Z,12.27
2023-05-07T07:43:44.296Z,12.28
2023-05-07T07:46:11.153Z,12.27
2023-05-07T07:48:37.789Z,12.24
2023-05-07T07:51:04.825Z,12.27
2023-05-07T07:53:32.197Z,12.29
2023-05-07T07:55:59.664Z,12.29
2023-05-07T07:58:29.074Z,12.32
2023-05-07T08:00:56.972Z,12.37
2023-05-07T08:03:24.567Z,12.42
2023-05-07T08:05:55.018Z,12.48
2023-05-07T08:08:22.354Z,12.54
2023-05-07T08:10:51.346Z,12.60
2023-05-07T08:13:26.133Z,12.72
2023-05-07T08:15:53.492Z,12.89
2023-05-07T08:18:20.349Z,13.05
2023-05-07T08:20:48.035Z,13.13
2023-05-07T08:23:18.809Z,13.21
2023-05-07T08:25:46.464Z,13.31
2023-05-07T08:28:13.566Z,13.35
2023-05-07T08:30:41.565Z,13.34
2023-05-07T08:33:10.205Z,13.36
2023-05-07T08:35:36.982Z,13.39
2023-05-07T08:38:04.471Z,13.44
2023-05-07T08:40:37.410Z,13.49
2023-05-07T08:43:05.882Z,13.57
2023-05-07T08:45:34.307Z,13.66
2023-05-07T08:48:03.981Z,13.72
2023-05-07T08:50:37.415Z,13.86
2023-05-07T08:53:05.937Z,14.01
2023-05-07T08:55:32.709Z,14.14
2023-05-07T08:58:01.210Z,14.23
2023-05-07T09:00:29.551Z,14.26
2023-05-07T09:02:56.949Z,14.28
2023-05-07T09:05:23.634Z,14.36
2023-05-07T09:07:53.992Z,14.47
2023-05-07T09:10:22.823Z,14.50
2023-05-07T09:12:50.606Z,14.55
2023-05-07T09:15:19.255Z,14.61
2023-05-07T09:17:46.084Z,14.73
2023-05-07T09:20:13.024Z,14.89
2023-05-07T09:22:40.685Z,15.00
2023-05-07T09:25:11.930Z,15.04
2023-05-07T09:27:39.658Z,15.15
2023-05-07T09:30:08.074Z,15.23
2023-05-07T09:32:39.032Z,15.30
2023-05-07T09:35:07.285Z,15.35
2023-05-07T09:37:34.725Z,15.38
2023-05-07T09:40:02.193Z,15.51
2023-05-07T09:42:30.728Z,15.63
2023-05-07T09:45:01.069Z,15.75
2023-05-07T09:47:35.992Z,15.90
2023-05-07T09:50:06.985Z,15.89
2023-05-07T09:52:36.278Z,15.87
2023-05-07T09:55:07.028Z,15.97
2023-05-07T09:57:34.830Z,16.05
2023-05-07T10:00:06.745Z,16.11
2023-05-07T10:02:53.426Z,16.24
2023-05-07T10:05:28.368Z,16.29
2023-05-07T10:07:58.321Z,16.36
2023-05-07T10:10:26.511Z,16.47
2023-05-07T10:12:54.034Z,16.55
2023-05-07T10:15:30.227Z,16.66
2023-05-07T10:17:59.018Z,16.64
2023-05-07T10:20:28.175Z,16.54
2023-05-07T10:22:58.122Z,16.50
2023-05-07T10:25:33.417Z,16.54
2023-05-07T10:28:11.155Z,16.43
2023-05-07T10:31:30.662Z,16.40
2023-05-07T10:33:58.989Z,16.38
2023-05-07T10:36:27.754Z,16.29
2023-05-07T10:38:54.630Z,16.38
2023-05-07T10:41:22.046Z,16.45
2023-05-07T10:43:49.919Z,16.49
2023-05-07T10:46:29.834Z,16.56
2023-05-07T10:49:15.249Z,16.68
2023-05-07T10:52:18.097Z,16.80
2023-05-07T10:55:22.428Z,16.76
2023-05-07T10:58:31.263Z,16.85
2023-05-07T11:01:53.038Z,16.86
2023-05-07T11:04:27.762Z,16.90
2023-05-07T11:07:28.969Z,16.92
2023-05-07T11:10:05.628Z,17.07
2023-05-07T11:12:56.349Z,17.20
2023-05-07T11:15:40.692Z,17.21
2023-05-07T11:18:18.420Z,17.26
2023-05-07T11:20:54.435Z,17.34
2023-05-07T11:23:50.077Z,17.34
2023-05-07T11:26:26.526Z,17.28
2023-05-07T11:28:55.123Z,17.22
2023-05-07T11:31:29.414Z,17.08
2023-05-07T11:33:59.352Z,17.10
2023-05-07T11:36:27.013Z,17.01
2023-05-07T11:38:55.679Z,16.97
2023-05-07T11:41:22.941Z,16.86
2023-05-07T11:43:57.750Z,16.77
2023-05-07T11:46:24.722Z,16.74
2023-05-07T11:48:51.800Z,16.68
2023-05-07T11:51:23.771Z,16.57
2023-05-07T11:53:51.422Z,16.60
2023-05-07T11:56:19.663Z,16.59
2023-05-07T11:58:47.604Z,16.53
2023-05-07T12:01:16.710Z,16.51
2023-05-07T12:03:46.902Z,16.58
2023-05-07T12:06:16.244Z,16.53
2023-05-07T12:08:45.751Z,16.52
2023-05-07T12:11:23.678Z,16.51
2023-05-07T12:13:52.472Z,16.51
2023-05-07T12:16:20.351Z,16.42
2023-05-07T12:18:47.705Z,16.55
2023-05-07T12:21:14.344Z,16.78
2023-05-07T12:23:41.066Z,16.90
2023-05-07T12:26:08.014Z,16.92
2023-05-07T12:28:39.948Z,16.98
2023-05-07T12:31:07.341Z,17.05
2023-05-07T12:33:36.307Z,17.12
2023-05-07T12:36:08.647Z,17.10
2023-05-07T12:38:39.878Z,17.19
2023-05-07T12:41:08.355Z,17.46
2023-05-07T12:43:35.341Z,17.65
2023-05-07T12:46:05.781Z,17.71
2023-05-07T12:48:34.392Z,17.69
2023-05-07T12:51:02.620Z,17.63
2023-05-07T12:53:32.497Z,17.57
2023-05-07T12:56:01.174Z,17.51
2023-05-07T12:58:34.052Z,17.65
2023-05-07T13:01:02.744Z,17.75
2023-05-07T13:03:31.258Z,17.90
2023-05-07T13:06:01.260Z,18.03
2023-05-07T13:08:30.724Z,18.15
2023-05-07T13:10:59.694Z,18.25
2023-05-07T13:13:27.495Z,18.30
2023-05-07T13:15:55.761Z,18.38
2023-05-07T13:18:22.355Z,18.38
2023-05-07T13:20:48.913Z,18.41
2023-05-07T13:23:15.606Z,18.42
2023-05-07T13:25:42.192Z,18.47
2023-05-07T13:28:11.181Z,18.56
2023-05-07T13:30:38.494Z,18.66
2023-05-07T13:33:05.056Z,18.57
2023-05-07T13:35:32.119Z,18.68
2023-05-07T13:37:58.667Z,18.85
2023-05-07T13:40:25.537Z,18.96
2023-05-07T13:42:52.125Z,19.20
2023-05-07T13:45:19.728Z,19.35
2023-05-07T13:47:47.783Z,19.37
2023-05-07T13:50:14.619Z,19.38
2023-05-07T13:52:46.466Z,19.44
2023-05-07T13:55:13.728Z,19.37
2023-05-07T13:57:40.547Z,19.27
2023-05-07T14:00:07.728Z,19.22
2023-05-07T14:02:41.902Z,19.16
2023-05-07T14:05:09.932Z,18.96
2023-05-07T14:07:36.993Z,18.88
2023-05-07T14:10:04.034Z,18.87
2023-05-07T14:12:30.686Z,18.81
2023-05-07T14:14:57.460Z,18.66
2023-05-07T14:17:26.369Z,18.58
2023-05-07T14:19:56.844Z,18.61
2023-05-07T14:22:23.672Z,18.62
2023-05-07T14:25:05.373Z,18.63
2023-05-07T14:27:33.485Z,18.63
2023-05-07T14:29:59.987Z,18.67
2023-05-07T14:32:26.444Z,18.49
2023-05-07T14:34:52.949Z,18.40
2023-05-07T14:37:20.995Z,18.45
2023-05-07T14:39:50.673Z,18.67
2023-05-07T14:42:18.308Z,18.63
2023-05-07T14:44:47.490Z,18.47
2023-05-07T14:47:14.499Z,18.41
2023-05-07T14:49:42.078Z,18.25
2023-05-07T14:52:11.203Z,18.11
2023-05-07T14:54:39.179Z,17.94
2023-05-07T14:57:07.806Z,17.83
2023-05-07T14:59:34.869Z,17.72
2023-05-07T15:02:03.793Z,17.67
2023-05-07T15:04:32.218Z,17.69
2023-05-07T15:06:58.769Z,17.82
2023-05-07T15:09:25.243Z,18.22
2023-05-07T15:11:51.833Z,18.70
2023-05-07T15:14:18.994Z,18.97
2023-05-07T15:16:46.691Z,18.97
2023-05-07T15:19:15.702Z,18.86
2023-05-07T15:21:42.209Z,18.64
2023-05-07T15:24:10.211Z,18.54
2023-05-07T15:26:38.926Z,18.60
2023-05-07T15:29:18.758Z,18.79
2023-05-07T15:31:46.845Z,19.12
2023-05-07T15:34:17.888Z,19.32
2023-05-07T15:36:44.757Z,19.37
2023-05-07T15:39:11.721Z,19.54
2023-05-07T15:41:38.325Z,20.04
2023-05-07T15:44:05.148Z,21.90
2023-05-07T15:46:31.673Z,22.81
2023-05-07T15:48:58.608Z,23.14
2023-05-07T15:51:25.162Z,22.32
2023-05-07T15:53:53.437Z,21.93
2023-05-07T15:56:20.026Z,21.39
2023-05-07T15:58:46.722Z,21.21
2023-05-07T16:01:13.304Z,21.06
2023-05-07T16:03:41.334Z,20.78
2023-05-07T16:06:08.478Z,20.54
2023-05-07T16:08:34.990Z,20.18
2023-05-07T16:11:01.629Z,19.81
2023-05-07T16:13:28.182Z,19.39
2023-05-07T16:15:59.030Z,19.36
2023-05-07T16:18:25.460Z,21.38
2023-05-07T16:20:52.146Z,21.70
2023-05-07T16:23:19.184Z,21.04
2023-05-07T16:25:45.872Z,20.33
2023-05-07T16:28:12.462Z,19.71
2023-05-07T16:30:39.231Z,19.23
2023-05-07T16:33:06.037Z,18.88
2023-05-07T16:35:32.610Z,18.84
2023-05-07T16:37:59.191Z,18.75
2023-05-07T16:40:26.469Z,18.99
2023-05-07T16:42:55.318Z,18.63
2023-05-07T16:45:24.094Z,18.25
2023-05-07T16:47:50.922Z,17.90
2023-05-07T16:50:17.467Z,17.57
2023-05-07T16:52:46.227Z,17.36
2023-05-07T16:55:13.344Z,17.47
2023-05-07T16:57:42.655Z,17.86
2023-05-07T17:00:11.665Z,17.66
2023-05-07T17:02:38.407Z,17.40
2023-05-07T17:05:06.578Z,17.17
2023-05-07T17:07:34.883Z,17.08
2023-05-07T17:10:02.168Z,17.02
2023-05-07T17:12:29.338Z,18.00
2023-05-07T17:14:55.918Z,18.50
2023-05-07T17:17:27.276Z,19.10
2023-05-07T17:19:54.755Z,19.46
2023-05-07T17:22:21.848Z,19.72
2023-05-07T17:24:48.534Z,19.83
2023-05-07T17:27:16.281Z,19.88
2023-05-07T17:29:42.782Z,19.94
2023-05-07T17:32:09.442Z,20.01
2023-05-07T17:34:36.052Z,19.60
2023-05-07T17:37:04.525Z,19.12
2023-05-07T17:39:32.238Z,18.72
2023-05-07T17:41:59.075Z,18.63
2023-05-07T17:44:26.069Z,18.41
2023-05-07T17:46:52.753Z,18.11
2023-05-07T17:49:19.638Z,17.78
2023-05-07T17:51:53.324Z,17.47
2023-05-07T17:54:21.642Z,17.21
2023-05-07T17:56:48.165Z,17.01
2023-05-07T17:59:14.664Z,16.81
2023-05-07T18:01:42.621Z,16.63
2023-05-07T18:04:09.278Z,16.46
2023-05-07T18:06:36.062Z,16.28
2023-05-07T18:09:02.837Z,16.17
2023-05-07T18:11:29.578Z,16.06
2023-05-07T18:13:56.072Z,15.98
2023-05-07T18:16:22.871Z,16.01
2023-05-07T18:18:50.116Z,15.87
2023-05-07T18:21:20.472Z,15.85
2023-05-07T18:23:48.317Z,15.71
2023-05-07T18:26:16.676Z,15.52
2023-05-07T18:28:43.318Z,15.34
2023-05-07T18:31:10.979Z,15.20
2023-05-07T18:33:37.480Z,15.08
2023-05-07T18:36:04.345Z,14.93
2023-05-07T18:38:30.938Z,14.81
2023-05-07T18:41:02.969Z,14.68
2023-05-07T18:43:29.758Z,14.56
2023-05-07T18:45:58.379Z,14.45
2023-05-07T18:48:25.039Z,14.32
2023-05-07T18:50:51.771Z,14.20
2023-05-07T18:53:18.299Z,14.10
2023-05-07T18:55:49.997Z,14.00
2023-05-07T18:58:20.219Z,13.92
2023-05-07T19:00:47.752Z,13.82
2023-05-07T19:03:17.192Z,13.73
2023-05-07T19:05:45.175Z,13.63
2023-05-07T19:08:11.903Z,13.52
2023-05-07T19:10:38.825Z,13.42
2023-05-07T19:13:05.966Z,13.34
2023-05-07T19:15:32.628Z,13.25
2023-05-07T19:17:59.394Z,13.16
2023-05-07T19:20:26.055Z,13.07
2023-05-07T19:22:52.619Z,13.00
2023-05-07T19:25:19.154Z,12.91
2023-05-07T19:27:47.248Z,12.84
2023-05-07T19:30:14.261Z,12.75
2023-05-07T19:32:40.867Z,12.65
2023-05-07T19:35:07.968Z,12.57
2023-05-07T19:37:34.573Z,12.49
2023-05-07T19:40:05.040Z,12.41
2023-05-07T19:42:34.036Z,12.33
2023-05-07T19:45:00.706Z,12.24
2023-05-07T19:47:27.377Z,12.14
2023-05-07T19:49:53.946Z,12.06
2023-05-07T19:52:20.453Z,12.00
2023-05-07T19:54:47.423Z,11.92
2023-05-07T19:57:14.303Z,11.84
2023-05-07T19:59:40.967Z,11.76
2023-05-07T20:02:07.491Z,11.70
2023-05-07T20:04:37.911Z,11.62
2023-05-07T20:07:05.427Z,11.56
2023-05-07T20:09:31.970Z,11.49
2023-05-07T20:11:58.443Z,11.43
2023-05-07T20:14:25.010Z,11.38
2023-05-07T20:16:51.440Z,11.32
2023-05-07T20:19:18.663Z,11.27
2023-05-07T20:21:45.224Z,11.22
2023-05-07T20:24:11.745Z,11.15
2023-05-07T20:26:38.690Z,11.11
2023-05-07T20:29:05.557Z,11.08
2023-05-07T20:31:35.002Z,11.02
2023-05-07T20:34:01.898Z,10.97
2023-05-07T20:36:28.825Z,10.93
2023-05-07T20:38:56.099Z,10.89
2023-05-07T20:41:24.985Z,10.83
2023-05-07T20:43:51.506Z,10.80
2023-05-07T20:46:20.734Z,10.76
2023-05-07T20:48:47.207Z,10.69
2023-05-07T20:51:15.779Z,10.66
2023-05-07T20:53:44.895Z,10.63
2023-05-07T20:56:13.370Z,10.60
2023-05-07T20:58:39.814Z,10.57
2023-05-07T21:01:06.847Z,10.53
2023-05-07T21:03:33.313Z,10.50
2023-05-07T21:06:03.077Z,10.46
2023-05-07T21:08:30.204Z,10.41
2023-05-07T21:10:56.965Z,10.40
2023-05-07T21:13:23.925Z,10.37
2023-05-07T21:15:50.447Z,10.32
2023-05-07T21:18:18.900Z,10.29
2023-05-07T21:20:45.522Z,10.26
2023-05-07T21:23:12.048Z,10.22
2023-05-07T21:25:40.999Z,10.17
2023-05-07T21:28:08.419Z,10.14
2023-05-07T21:30:36.019Z,10.12
2023-05-07T21:33:02.875Z,10.08
2023-05-07T21:35:29.382Z,10.02
2023-05-07T21:37:55.923Z,9.99
2023-05-07T21:40:22.409Z,9.97
2023-05-07T21:42:48.888Z,9.94
2023-05-07T21:45:15.578Z,9.93
2023-05-07T21:47:42.143Z,9.94
2023-05-07T21:50:09.143Z,9.96
2023-05-07T21:52:35.607Z,10.00
2023-05-07T21:55:02.836Z,10.02
2023-05-07T21:57:29.493Z,10.02
2023-05-07T21:59:56.023Z,10.02
2023-05-07T22:02:22.744Z,10.02
2023-05-07T22:04:49.423Z,9.99
2023-05-07T22:07:16.787Z,9.94
2023-05-07T22:09:43.233Z,9.89
2023-05-07T22:12:10.153Z,9.83
2023-05-07T22:14:36.739Z,9.79
2023-05-07T22:17:03.279Z,9.75
2023-05-07T22:19:29.715Z,9.73
2023-05-07T22:21:56.219Z,9.68
2023-05-07T22:24:23.088Z,9.63
2023-05-07T22:26:49.714Z,9.60
2023-05-07T22:29:16.342Z,9.56
2023-05-07T22:31:42.945Z,9.54
2023-05-07T22:34:09.470Z,9.52
2023-05-07T22:36:35.960Z,9.50
2023-05-07T22:39:03.452Z,9.49
2023-05-07T22:41:30.010Z,9.48
2023-05-07T22:43:56.654Z,9.47
2023-05-07T22:46:23.271Z,9.47
2023-05-07T22:48:49.912Z,9.42
2023-05-07T22:51:16.365Z,9.40
2023-05-07T22:53:42.803Z,9.38
2023-05-07T22:56:09.641Z,9.36
2023-05-07T22:58:36.199Z,9.33
2023-05-07T23:01:02.933Z,9.30
2023-05-07T23:03:29.821Z,9.28
2023-05-07T23:05:56.303Z,9.27
2023-05-07T23:08:23.290Z,9.23
2023-05-07T23:10:49.871Z,9.20
2023-05-07T23:13:17.532Z,9.19
2023-05-07T23:15:44.240Z,9.18
2023-05-07T23:18:10.809Z,9.16
2023-05-07T23:20:37.373Z,9.15
2023-05-07T23:23:04.093Z,9.12
2023-05-07T23:25:30.635Z,9.11
2023-05-07T23:27:57.105Z,9.10
2023-05-07T23:30:23.586Z,9.08
2023-05-07T23:32:50.141Z,9.07
2023-05-07T23:35:16.626Z,9.06
2023-05-07T23:37:43.087Z,9.05
2023-05-07T23:40:09.684Z,9.05
2023-05-07T23:42:36.538Z,9.02
2023-05-07T23:45:04.056Z,9.00
2023-05-07T23:47:30.636Z,8.99
2023-05-07T23:49:57.186Z,8.97
2023-05-07T23:52:23.658Z,8.95
2023-05-07T23:54:50.127Z,8.92
2023-05-07T23:57:16.745Z,8.90
2023-05-07T23:59:43.200Z,8.88
